Time;durP1;ratioP1;P1;durP2;ratioP2;P2;SDS_P1;SDS_P2;PMS_P1;PMS_P2;Temp;Humidity;BMP_temperature;BMP_pressure;BME280_temperature;BME280_humidity;BME280_pressure;Samples;Min_cycle;Max_cycle;Signal;HPM_P1;HPM_P2
2022/02/01 00:01:00;;;;;;;;;;;3.40;1.00;;;;;;5079451;28;19958;-80
2022/02/01 00:03:29;;;;;;;;;;;3.40;1.00;;;;;;5057796;28;19913;-82
2022/02/01 00:08:41;;;;;;;;;;;3.30;1.00;;;;;;5073262;28;19912;-81
2022/02/01 00:11:22;;;;;;;;;;;3.30;1.00;;;;;;5058420;28;20003;-80
2022/02/01 00:40:38;;;;;;;;;;;3.10;1.00;;;;;;5042961;28;19966;-82
2022/02/01 00:43:05;;;;;;;;;;;3.10;1.00;;;;;;5057906;28;19918;-81
2022/02/01 00:45:31;;;;;;;;;;;3.10;1.00;;;;;;5071211;28;19912;-81
2022/02/01 00:47:57;;;;;;;;;;;3.10;1.00;;;;;;5071576;28;19919;-82
2022/02/01 00:50:22;;;;;;;;;;;3.10;1.00;;;;;;5069052;28;19913;-82
2022/02/01 00:52:48;;;;;;;;;;;3.00;1.00;;;;;;5072852;28;20419;-81
2022/02/01 00:55:13;;;;;;;;;;;3.10;1.00;;;;;;5073476;28;19916;-82
2022/02/01 00:57:39;;;;;;;;;;;3.10;1.00;;;;;;5072191;28;19983;-82
2022/02/01 01:00:06;;;;;;;;;;;3.10;1.00;;;;;;5073297;28;19920;-82
2022/02/01 01:02:31;;;;;;;;;;;3.10;1.00;;;;;;5071956;28;19959;-82
2022/02/01 01:04:57;;;;;;;;;;;3.10;1.00;;;;;;5073372;28;19912;-81
2022/02/01 01:07:22;;;;;;;;;;;3.10;1.00;;;;;;5057481;28;19916;-82
2022/02/01 01:09:48;;;;;;;;;;;3.10;1.00;;;;;;5085405;28;19999;-84
2022/02/01 01:12:16;;;;;;;;;;;3.10;1.00;;;;;;5059678;28;19913;-82
2022/02/01 01:17:49;;;;;;;;;;;3.10;1.00;;;;;;5070336;28;20615;-81
2022/02/01 01:44:47;;;;;;;;;;;3.30;1.00;;;;;;5076006;28;19930;-81
2022/02/01 01:55:33;;;;;;;;;;;3.40;99.90;;;;;;5074288;28;19923;-82
2022/02/01 01:57:58;;;;;;;;;;;3.40;99.90;;;;;;5076410;28;20002;-82
2022/02/01 02:00:44;;;;;;;;;;;3.40;99.90;;;;;;5076552;28;19916;-82
2022/02/01 02:03:09;;;;;;;;;;;3.50;99.90;;;;;;5086602;28;20011;-81
2022/02/01 02:05:35;;;;;;;;;;;3.50;99.90;;;;;;5090918;28;19962;-82
2022/02/01 02:08:01;;;;;;;;;;;3.50;99.90;;;;;;5077976;28;20445;-82
2022/02/01 02:10:31;;;;;;;;;;;3.50;99.90;;;;;;5060503;28;19912;-83
2022/02/01 02:14:16;;;;;;;;;;;3.50;99.90;;;;;;5081292;28;19954;-83
2022/02/01 02:15:55;;;;;;;;;;;3.50;99.90;;;;;;5079439;28;19924;-82
2022/02/01 02:18:22;;;;;;;;;;;3.60;99.90;;;;;;5077160;28;19961;-83
2022/02/01 02:20:51;;;;;;;;;;;3.60;99.90;;;;;;5078746;28;19912;-82
2022/02/01 02:23:16;;;;;;;;;;;3.60;99.90;;;;;;5073023;28;19935;-83
2022/02/01 02:25:42;;;;;;;;;;;3.60;99.90;;;;;;5079848;28;20540;-84
2022/02/01 02:28:10;;;;;;;;;;;3.60;99.90;;;;;;5078500;28;19912;-82
2022/02/01 02:30:35;;;;;;;;;;;3.60;99.90;;;;;;5073300;28;19916;-81
2022/02/01 02:33:06;;;;;;;;;;;3.60;99.90;;;;;;5078674;28;19916;-83
2022/02/01 02:35:35;;;;;;;;;;;3.60;99.90;;;;;;5074405;28;20403;-82
2022/02/01 02:38:10;;;;;;;;;;;3.60;99.90;;;;;;5074432;28;19940;-81
2022/02/01 02:40:58;;;;;;;;;;;3.60;99.90;;;;;;5051719;28;20008;-82
2022/02/01 02:46:05;;;;;;;;;;;3.50;99.90;;;;;;5072758;28;19918;-81
2022/02/01 02:48:31;;;;;;;;;;;3.50;99.90;;;;;;5075300;28;19943;-81
2022/02/01 02:50:56;;;;;;;;;;;3.50;99.90;;;;;;5077828;28;20065;-83
2022/02/01 02:53:21;;;;;;;;;;;3.50;99.90;;;;;;5075320;28;19916;-82
2022/02/01 02:55:47;;;;;;;;;;;3.50;99.90;;;;;;5074243;28;19971;-82
2022/02/01 02:58:12;;;;;;;;;;;3.50;99.90;;;;;;5075404;28;20011;-81
2022/02/01 03:00:38;;;;;;;;;;;3.50;99.90;;;;;;5076020;28;19916;-81
2022/02/01 03:03:04;;;;;;;;;;;3.50;99.90;;;;;;5061265;28;20003;-81
2022/02/01 03:05:29;;;;;;;;;;;3.50;99.90;;;;;;5058182;28;20438;-82
2022/02/01 03:07:55;;;;;;;;;;;3.50;99.90;;;;;;5074350;28;19952;-82
2022/02/01 03:10:20;;;;;;;;;;;3.50;99.90;;;;;;5077596;28;19918;-81
2022/02/01 03:20:39;;;;;;;;;;;3.50;1.00;;;;;;5075019;28;19951;-81
2022/02/01 03:23:05;;;;;;;;;;;3.50;1.00;;;;;;5074213;28;19913;-83
2022/02/01 03:25:30;;;;;;;;;;;3.50;1.00;;;;;;5073094;28;19912;-80
2022/02/01 03:27:56;;;;;;;;;;;3.50;1.00;;;;;;5073453;28;20281;-81
2022/02/01 03:30:22;;;;;;;;;;;3.50;1.00;;;;;;5074458;28;19912;-81
2022/02/01 03:32:48;;;;;;;;;;;3.50;1.00;;;;;;5053615;28;19968;-81
2022/02/01 03:35:14;;;;;;;;;;;3.50;1.00;;;;;;5073844;28;20426;-82
2022/02/01 03:37:39;;;;;;;;;;;3.50;1.00;;;;;;5057598;28;20001;-83
2022/02/01 03:40:05;;;;;;;;;;;3.60;1.00;;;;;;5073407;28;19913;-82
2022/02/01 03:42:31;;;;;;;;;;;3.60;1.00;;;;;;5057952;28;20412;-83
2022/02/01 03:44:56;;;;;;;;;;;3.60;1.00;;;;;;5086131;28;19912;-83
2022/02/01 03:47:21;;;;;;;;;;;3.60;1.00;;;;;;5060022;28;19942;-83
2022/02/01 03:49:47;;;;;;;;;;;3.60;1.00;;;;;;5076678;28;19912;-81
2022/02/01 03:52:12;;;;;;;;;;;3.60;1.00;;;;;;5074534;28;20018;-81
2022/02/01 03:54:38;;;;;;;;;;;3.60;1.00;;;;;;5071767;28;19912;-81
2022/02/01 03:57:05;;;;;;;;;;;3.60;1.00;;;;;;5067239;28;19959;-81
2022/02/01 03:59:31;;;;;;;;;;;3.60;1.00;;;;;;5075874;23;19943;-83
2022/02/01 04:01:57;;;;;;;;;;;3.60;1.00;;;;;;5072768;28;20289;-82
2022/02/01 04:04:28;;;;;;;;;;;3.60;1.00;;;;;;5078489;28;19996;-83
2022/02/01 04:06:54;;;;;;;;;;;3.60;1.00;;;;;;5079768;28;20380;-83
2022/02/01 04:09:22;;;;;;;;;;;3.60;1.00;;;;;;5067814;28;19919;-83
2022/02/01 04:11:47;;;;;;;;;;;3.70;1.00;;;;;;5073345;28;19920;-82
2022/02/01 04:14:16;;;;;;;;;;;3.70;1.00;;;;;;5068074;28;19935;-82
2022/02/01 04:16:42;;;;;;;;;;;3.70;99.90;;;;;;5063895;28;19924;-83
2022/02/01 04:19:07;;;;;;;;;;;3.70;99.90;;;;;;5076207;28;19919;-83
2022/02/01 04:21:33;;;;;;;;;;;3.70;99.90;;;;;;5076039;28;19919;-82
2022/02/01 04:23:59;;;;;;;;;;;3.80;99.90;;;;;;5077683;28;19966;-82
2022/02/01 04:26:24;;;;;;;;;;;3.80;99.90;;;;;;5076260;28;19916;-82
2022/02/01 04:28:50;;;;;;;;;;;3.90;99.90;;;;;;5075314;28;19916;-83
2022/02/01 04:31:15;;;;;;;;;;;3.80;99.90;;;;;;5067138;28;19913;-81
2022/02/01 04:33:40;;;;;;;;;;;3.80;99.90;;;;;;5070664;28;20295;-82
2022/02/01 04:36:06;;;;;;;;;;;3.90;99.90;;;;;;5076766;28;19920;-82
2022/02/01 04:38:33;;;;;;;;;;;3.90;99.90;;;;;;5073937;28;20284;-82
2022/02/01 04:40:59;;;;;;;;;;;3.90;99.90;;;;;;5076837;28;19913;-82
2022/02/01 04:43:24;;;;;;;;;;;3.90;99.90;;;;;;5076146;28;20659;-83
2022/02/01 04:45:50;;;;;;;;;;;3.90;99.90;;;;;;5077068;28;20390;-82
2022/02/01 04:48:15;;;;;;;;;;;3.90;99.90;;;;;;5072496;28;19916;-82
2022/02/01 04:50:41;;;;;;;;;;;3.90;99.90;;;;;;5075297;28;19952;-82
2022/02/01 04:53:06;;;;;;;;;;;3.90;99.90;;;;;;5078229;28;19919;-81
2022/02/01 04:58:13;;;;;;;;;;;3.90;99.90;;;;;;5075975;28;19942;-81
2022/02/01 05:00:38;;;;;;;;;;;3.90;99.90;;;;;;5077017;28;19917;-82
2022/02/01 05:03:04;;;;;;;;;;;3.90;99.90;;;;;;5077409;28;19924;-82
2022/02/01 05:05:29;;;;;;;;;;;3.90;99.90;;;;;;5076974;28;19919;-82
2022/02/01 05:08:00;;;;;;;;;;;3.90;99.90;;;;;;5076585;28;19917;-83
2022/02/01 05:10:26;;;;;;;;;;;3.90;99.90;;;;;;5078919;28;19916;-81
2022/02/01 05:12:51;;;;;;;;;;;3.90;99.90;;;;;;5077348;28;19939;-81
2022/02/01 05:15:17;;;;;;;;;;;3.90;99.90;;;;;;5077355;28;19916;-82
2022/02/01 05:17:51;;;;;;;;;;;3.90;99.90;;;;;;5076139;28;19920;-81
2022/02/01 05:20:28;;;;;;;;;;;3.90;99.90;;;;;;5074830;28;19999;-81
2022/02/01 05:22:54;;;;;;;;;;;3.90;99.90;;;;;;5072328;28;20280;-81
2022/02/01 05:25:26;;;;;;;;;;;4.00;99.90;;;;;;5074034;28;19936;-81
2022/02/01 05:27:52;;;;;;;;;;;3.90;99.90;;;;;;5083275;28;19916;-80
2022/02/01 05:30:17;;;;;;;;;;;3.90;99.90;;;;;;5063962;28;19913;-81
2022/02/01 05:32:43;;;;;;;;;;;3.90;99.90;;;;;;5075232;28;19912;-81
2022/02/01 05:35:08;;;;;;;;;;;3.90;99.90;;;;;;5076579;28;19923;-81
2022/02/01 05:37:34;;;;;;;;;;;4.00;99.90;;;;;;5074360;28;19999;-81
2022/02/01 05:39:59;;;;;;;;;;;4.00;99.90;;;;;;5081173;28;20728;-82
2022/02/01 05:42:35;;;;;;;;;;;3.90;99.90;;;;;;5076215;28;19913;-82
2022/02/01 05:45:01;;;;;;;;;;;4.00;99.90;;;;;;5076303;28;19943;-81
2022/02/01 05:47:27;;;;;;;;;;;4.00;99.90;;;;;;5069265;28;19959;-82
2022/02/01 05:49:52;;;;;;;;;;;4.00;99.90;;;;;;5071480;28;19920;-81
2022/02/01 05:52:18;;;;;;;;;;;4.00;99.90;;;;;;5074173;28;19919;-81
2022/02/01 05:54:43;;;;;;;;;;;4.00;99.90;;;;;;5074220;28;19917;-82
2022/02/01 05:57:09;;;;;;;;;;;4.00;61.20;;;;;;5068809;28;19917;-81
2022/02/01 05:59:37;;;;;;;;;;;4.00;30.50;;;;;;5076033;28;19912;-81
2022/02/01 06:02:03;;;;;;;;;;;4.00;1.00;;;;;;5071301;28;19912;-81
2022/02/01 06:04:28;;;;;;;;;;;4.00;7.40;;;;;;5067585;28;19909;-82
2022/02/01 06:06:54;;;;;;;;;;;4.00;8.40;;;;;;5085017;28;19987;-81
2022/02/01 06:09:19;;;;;;;;;;;4.00;7.20;;;;;;5075082;28;19908;-81
2022/02/01 06:11:45;;;;;;;;;;;4.00;15.70;;;;;;5074567;28;19981;-80
2022/02/01 06:14:10;;;;;;;;;;;4.00;19.00;;;;;;5074706;28;19912;-81
2022/02/01 06:16:36;;;;;;;;;;;4.00;47.50;;;;;;5075562;28;19916;-82
2022/02/01 06:19:01;;;;;;;;;;;4.00;72.20;;;;;;5081897;28;19913;-79
2022/02/01 06:21:26;;;;;;;;;;;4.00;90.10;;;;;;5065358;28;19991;-81
2022/02/01 06:23:52;;;;;;;;;;;4.00;93.40;;;;;;5075517;28;19923;-82
2022/02/01 06:26:20;;;;;;;;;;;3.90;99.90;;;;;;5074665;28;19915;-81
2022/02/01 06:28:46;;;;;;;;;;;3.90;99.90;;;;;;5076900;28;19913;-81
2022/02/01 06:31:11;;;;;;;;;;;3.90;99.90;;;;;;5078429;28;19935;-81
2022/02/01 06:33:36;;;;;;;;;;;3.90;99.90;;;;;;5075422;28;19909;-82
2022/02/01 06:36:02;;;;;;;;;;;3.90;99.90;;;;;;5094453;28;19993;-81
2022/02/01 06:38:27;;;;;;;;;;;4.00;99.90;;;;;;5078860;28;19920;-81
2022/02/01 06:40:53;;;;;;;;;;;4.00;99.90;;;;;;5078654;28;19921;-81
2022/02/01 06:43:18;;;;;;;;;;;3.90;99.90;;;;;;5078749;28;19919;-81
2022/02/01 06:45:44;;;;;;;;;;;4.00;99.90;;;;;;5077805;28;20450;-82
2022/02/01 06:48:10;;;;;;;;;;;4.00;99.90;;;;;;5078598;28;19934;-81
2022/02/01 06:50:35;;;;;;;;;;;4.00;99.90;;;;;;5077273;28;19924;-81
2022/02/01 06:53:02;;;;;;;;;;;4.20;99.90;;;;;;5085912;28;19936;-82
2022/02/01 06:55:34;;;;;;;;;;;4.30;99.90;;;;;;5078101;28;19916;-81
2022/02/01 06:58:00;;;;;;;;;;;4.30;99.90;;;;;;5074379;28;20338;-80
2022/02/01 07:00:26;;;;;;;;;;;4.40;99.90;;;;;;5065932;28;19916;-80
2022/02/01 07:02:51;;;;;;;;;;;4.40;99.90;;;;;;5072270;28;19913;-80
2022/02/01 07:05:17;;;;;;;;;;;4.40;99.90;;;;;;5074996;28;19919;-81
2022/02/01 07:07:42;;;;;;;;;;;4.40;99.90;;;;;;5074191;28;19913;-80
2022/02/01 07:10:08;;;;;;;;;;;4.40;99.90;;;;;;5074175;28;20424;-80
2022/02/01 07:12:33;;;;;;;;;;;4.40;99.90;;;;;;5071899;28;20381;-81
2022/02/01 07:14:59;;;;;;;;;;;4.40;99.90;;;;;;5085286;28;19917;-80
2022/02/01 07:17:24;;;;;;;;;;;4.40;99.90;;;;;;5074717;28;19983;-81
2022/02/01 07:19:50;;;;;;;;;;;4.40;99.90;;;;;;5073771;28;19912;-80
2022/02/01 07:22:15;;;;;;;;;;;4.40;99.90;;;;;;5070236;28;19920;-79
2022/02/01 07:24:54;;;;;;;;;;;4.40;99.90;;;;;;5071326;28;20422;-80
2022/02/01 07:27:37;;;;;;;;;;;4.40;99.90;;;;;;5075386;28;19912;-81
2022/02/01 07:30:12;;;;;;;;;;;4.50;99.90;;;;;;5075039;28;19936;-81
2022/02/01 07:32:40;;;;;;;;;;;4.50;99.90;;;;;;5069673;28;20332;-81
2022/02/01 07:35:07;;;;;;;;;;;4.50;99.90;;;;;;5070526;28;19920;-82
2022/02/01 07:37:32;;;;;;;;;;;4.50;99.90;;;;;;5070434;28;19912;-82
2022/02/01 07:39:58;;;;;;;;;;;4.50;99.90;;;;;;5071998;28;20038;-81
2022/02/01 07:42:23;;;;;;;;;;;4.50;99.90;;;;;;5073935;28;20372;-83
2022/02/01 07:44:50;;;;;;;;;;;4.60;99.90;;;;;;5073620;28;19912;-82
2022/02/01 07:47:21;;;;;;;;;;;4.60;99.90;;;;;;5073318;28;19913;-82
2022/02/01 07:49:47;;;;;;;;;;;4.60;99.90;;;;;;5070538;28;19912;-82
2022/02/01 07:52:13;;;;;;;;;;;4.60;99.90;;;;;;5080966;28;19921;-80
2022/02/01 07:54:39;;;;;;;;;;;4.70;99.90;;;;;;5073245;28;19966;-81
2022/02/01 07:57:06;;;;;;;;;;;4.70;99.90;;;;;;5083309;28;19928;-82
2022/02/01 07:59:32;;;;;;;;;;;4.70;99.90;;;;;;5065627;28;19913;-82
2022/02/01 08:01:58;;;;;;;;;;;4.70;99.90;;;;;;5068971;28;19920;-82
2022/02/01 08:04:24;;;;;;;;;;;4.70;1.00;;;;;;5074244;28;19923;-82
2022/02/01 08:06:49;;;;;;;;;;;4.70;1.00;;;;;;5074463;28;19927;-83
2022/02/01 08:09:24;;;;;;;;;;;4.70;1.00;;;;;;5075108;28;19912;-82
2022/02/01 08:11:50;;;;;;;;;;;4.70;1.00;;;;;;5073795;28;19966;-83
2022/02/01 08:17:05;;;;;;;;;;;4.70;1.00;;;;;;5077706;28;19916;-81
2022/02/01 08:22:09;;;;;;;;;;;4.80;1.00;;;;;;5066222;28;19959;-82
2022/02/01 08:24:34;;;;;;;;;;;4.80;1.00;;;;;;5070008;28;19960;-82
2022/02/01 08:27:00;;;;;;;;;;;4.80;1.00;;;;;;5069762;28;19970;-84
2022/02/01 08:29:25;;;;;;;;;;;4.80;1.00;;;;;;5072112;28;19952;-82
2022/02/01 08:31:51;;;;;;;;;;;4.90;1.00;;;;;;5072678;28;19912;-82
2022/02/01 08:34:17;;;;;;;;;;;4.80;1.00;;;;;;5073318;28;19912;-82
2022/02/01 08:36:42;;;;;;;;;;;4.90;1.00;;;;;;5071291;28;19974;-82
2022/02/01 08:39:08;;;;;;;;;;;4.90;1.00;;;;;;5086147;28;20003;-82
2022/02/01 08:41:35;;;;;;;;;;;4.90;1.00;;;;;;5070628;28;19920;-82
2022/02/01 08:44:02;;;;;;;;;;;4.90;1.00;;;;;;5071111;28;19913;-82
2022/02/01 08:46:27;;;;;;;;;;;4.90;1.00;;;;;;5071220;28;19958;-83
2022/02/01 08:48:53;;;;;;;;;;;4.90;1.00;;;;;;5072364;28;20365;-83
2022/02/01 08:51:21;;;;;;;;;;;4.90;1.00;;;;;;5070020;28;19916;-82
2022/02/01 08:53:53;;;;;;;;;;;4.90;1.00;;;;;;5073223;28;20327;-82
2022/02/01 08:59:03;;;;;;;;;;;5.00;1.00;;;;;;5073109;28;19919;-83
2022/02/01 09:01:28;;;;;;;;;;;5.00;1.00;;;;;;5073853;28;19972;-83
2022/02/01 09:03:54;;;;;;;;;;;5.00;1.00;;;;;;5073921;28;20361;-83
2022/02/01 09:06:21;;;;;;;;;;;5.00;1.00;;;;;;5069520;28;19919;-83
2022/02/01 09:08:47;;;;;;;;;;;5.00;1.00;;;;;;5078840;28;20003;-82
2022/02/01 09:11:14;;;;;;;;;;;5.10;1.00;;;;;;5075876;28;20020;-81
2022/02/01 09:13:40;;;;;;;;;;;5.10;1.00;;;;;;5071750;28;19923;-80
2022/02/01 09:16:06;;;;;;;;;;;5.20;1.00;;;;;;5071992;28;20391;-81
2022/02/01 09:18:31;;;;;;;;;;;5.20;1.00;;;;;;5072518;28;20007;-82
2022/02/01 09:20:58;;;;;;;;;;;5.20;1.00;;;;;;5072084;28;19966;-81
2022/02/01 09:23:23;;;;;;;;;;;5.30;1.00;;;;;;5069528;28;19967;-81
2022/02/01 09:25:49;;;;;;;;;;;5.40;1.00;;;;;;5065560;28;19924;-80
2022/02/01 09:28:14;;;;;;;;;;;5.40;1.00;;;;;;5069882;28;19951;-81
2022/02/01 09:30:40;;;;;;;;;;;5.40;1.00;;;;;;5074125;28;19919;-80
2022/02/01 09:33:05;;;;;;;;;;;5.50;1.00;;;;;;5075615;28;19913;-80
2022/02/01 09:35:31;;;;;;;;;;;5.50;1.00;;;;;;5077322;28;20298;-81
2022/02/01 09:37:56;;;;;;;;;;;5.50;1.00;;;;;;5075368;28;19969;-82
2022/02/01 09:40:22;;;;;;;;;;;5.50;1.00;;;;;;5074735;28;19912;-81
2022/02/01 09:42:47;;;;;;;;;;;5.50;1.00;;;;;;5073726;28;20314;-80
2022/02/01 09:45:13;;;;;;;;;;;5.60;1.00;;;;;;5089407;28;19926;-81
2022/02/01 09:47:40;;;;;;;;;;;5.70;1.00;;;;;;5072431;28;19912;-81
2022/02/01 09:50:06;;;;;;;;;;;5.70;1.00;;;;;;5070803;28;20011;-81
2022/02/01 09:52:32;;;;;;;;;;;5.70;1.00;;;;;;5072362;28;20351;-81
2022/02/01 09:54:58;;;;;;;;;;;5.70;1.00;;;;;;5071953;28;19940;-81
2022/02/01 09:57:24;;;;;;;;;;;5.70;1.00;;;;;;5074121;28;19954;-81
2022/02/01 09:59:53;;;;;;;;;;;5.70;1.00;;;;;;5078552;28;19949;-80
2022/02/01 10:02:20;;;;;;;;;;;5.70;1.00;;;;;;5079013;28;19937;-81
2022/02/01 10:04:48;;;;;;;;;;;5.70;1.00;;;;;;5079807;28;19917;-81
2022/02/01 10:07:14;;;;;;;;;;;5.80;1.00;;;;;;5089595;28;20049;-82
2022/02/01 10:09:50;;;;;;;;;;;5.80;1.00;;;;;;5093266;28;20357;-82
2022/02/01 10:12:16;;;;;;;;;;;5.80;1.00;;;;;;5092841;28;19916;-81
2022/02/01 10:14:51;;;;;;;;;;;5.90;1.00;;;;;;5083182;28;19920;-82
2022/02/01 10:17:24;;;;;;;;;;;5.90;1.00;;;;;;5084389;28;19935;-82
2022/02/01 10:19:49;;;;;;;;;;;6.00;1.00;;;;;;5080233;28;19917;-82
2022/02/01 10:22:15;;;;;;;;;;;6.00;1.00;;;;;;5085210;28;19998;-81
2022/02/01 10:24:41;;;;;;;;;;;5.90;1.00;;;;;;5080823;28;19908;-81
2022/02/01 10:27:08;;;;;;;;;;;6.00;1.00;;;;;;5096460;28;19916;-83
2022/02/01 10:29:35;;;;;;;;;;;6.00;1.00;;;;;;5076698;28;19912;-83
2022/02/01 10:32:11;;;;;;;;;;;6.20;1.00;;;;;;5085076;28;19912;-82
2022/02/01 10:37:13;;;;;;;;;;;6.40;1.00;;;;;;5078423;28;19986;-82
2022/02/01 10:39:39;;;;;;;;;;;6.40;1.00;;;;;;5086951;28;19915;-82
2022/02/01 10:42:08;;;;;;;;;;;6.30;1.00;;;;;;5085758;28;19908;-82
2022/02/01 10:44:46;;;;;;;;;;;6.30;1.00;;;;;;5079483;28;19916;-82
2022/02/01 10:47:13;;;;;;;;;;;6.40;1.00;;;;;;5101550;28;19919;-82
2022/02/01 10:49:38;;;;;;;;;;;6.40;1.00;;;;;;5085974;28;19909;-82
2022/02/01 10:52:07;;;;;;;;;;;6.50;1.00;;;;;;5088478;28;19919;-82
2022/02/01 10:54:33;;;;;;;;;;;6.50;1.00;;;;;;5103857;28;20371;-82
2022/02/01 10:56:59;;;;;;;;;;;6.50;1.00;;;;;;5077497;28;19916;-83
2022/02/01 10:59:25;;;;;;;;;;;6.60;1.00;;;;;;5090489;28;19909;-84
2022/02/01 11:01:51;;;;;;;;;;;6.60;1.00;;;;;;5090592;28;19913;-83
2022/02/01 11:04:19;;;;;;;;;;;6.60;1.00;;;;;;5091129;28;19908;-83
2022/02/01 11:06:44;;;;;;;;;;;6.60;1.00;;;;;;5087049;28;19912;-83
2022/02/01 11:09:10;;;;;;;;;;;6.60;1.00;;;;;;5081717;28;19943;-83
2022/02/01 11:11:35;;;;;;;;;;;6.60;1.00;;;;;;5089870;28;19919;-83
2022/02/01 11:14:01;;;;;;;;;;;6.60;1.00;;;;;;5089766;28;19908;-84
2022/02/01 11:16:27;;;;;;;;;;;6.60;1.00;;;;;;5090518;28;19912;-83
2022/02/01 11:18:54;;;;;;;;;;;6.70;1.00;;;;;;5089539;28;19916;-83
2022/02/01 11:21:20;;;;;;;;;;;6.70;1.00;;;;;;5105313;28;19923;-84
2022/02/01 11:23:57;;;;;;;;;;;6.70;1.00;;;;;;5080554;28;19948;-83
2022/02/01 11:26:25;;;;;;;;;;;6.80;1.00;;;;;;5090454;28;20105;-83
2022/02/01 11:31:41;;;;;;;;;;;7.00;1.00;;;;;;5091745;28;19915;-83
2022/02/01 11:34:12;;;;;;;;;;;7.00;1.00;;;;;;5084608;28;19946;-83
2022/02/01 11:36:39;;;;;;;;;;;7.00;1.00;;;;;;5086247;28;19935;-83
2022/02/01 11:39:09;;;;;;;;;;;7.00;1.00;;;;;;5089044;28;19913;-84
2022/02/01 11:41:36;;;;;;;;;;;7.10;1.00;;;;;;5080981;28;20299;-83
2022/02/01 11:44:20;;;;;;;;;;;7.10;1.00;;;;;;5088204;28;20387;-83
2022/02/01 11:47:00;;;;;;;;;;;7.00;1.00;;;;;;5085475;28;19968;-83
2022/02/01 11:49:25;;;;;;;;;;;7.00;1.00;;;;;;5078090;28;19912;-83
2022/02/01 11:51:51;;;;;;;;;;;7.00;1.00;;;;;;5070770;28;19923;-83
2022/02/01 11:54:19;;;;;;;;;;;7.00;1.00;;;;;;5070161;28;19931;-85
2022/02/01 11:56:45;;;;;;;;;;;7.00;1.00;;;;;;5071733;28;19935;-83
2022/02/01 11:59:14;;;;;;;;;;;7.10;1.00;;;;;;5071277;28;19909;-82
2022/02/01 12:01:40;;;;;;;;;;;7.10;1.00;;;;;;5070671;28;20380;-83
2022/02/01 12:04:08;;;;;;;;;;;7.10;1.00;;;;;;5075692;28;19932;-83
2022/02/01 12:06:54;;;;;;;;;;;7.10;1.00;;;;;;5092050;28;19975;-83
2022/02/01 12:09:21;;;;;;;;;;;7.20;1.00;;;;;;5089349;28;19909;-83
2022/02/01 12:11:47;;;;;;;;;;;7.20;1.00;;;;;;5091079;28;19948;-83
2022/02/01 12:14:13;;;;;;;;;;;7.20;1.00;;;;;;5078794;28;19916;-83
2022/02/01 12:16:45;;;;;;;;;;;7.30;1.00;;;;;;5090748;28;20042;-82
2022/02/01 12:19:14;;;;;;;;;;;7.30;1.00;;;;;;5089042;28;19908;-83
2022/02/01 12:21:42;;;;;;;;;;;7.30;1.00;;;;;;5091300;28;19968;-83
2022/02/01 12:24:08;;;;;;;;;;;7.30;1.00;;;;;;5106569;28;19950;-82
2022/02/01 12:26:38;;;;;;;;;;;7.30;1.00;;;;;;5090407;28;19912;-83
2022/02/01 12:29:05;;;;;;;;;;;7.40;1.00;;;;;;5084975;28;19905;-83
2022/02/01 12:31:33;;;;;;;;;;;7.40;1.00;;;;;;5080492;28;20253;-82
2022/02/01 12:33:59;;;;;;;;;;;7.40;1.00;;;;;;5097574;28;19913;-83
2022/02/01 12:36:32;;;;;;;;;;;7.40;1.00;;;;;;5089116;28;19912;-83
2022/02/01 12:38:58;;;;;;;;;;;7.40;1.00;;;;;;5089154;28;19909;-83
2022/02/01 12:41:30;;;;;;;;;;;7.50;1.00;;;;;;5091179;28;19945;-83
2022/02/01 12:46:51;;;;;;;;;;;7.40;1.00;;;;;;5091836;28;19935;-84
2022/02/01 12:49:17;;;;;;;;;;;7.40;1.00;;;;;;5083544;28;19913;-84
2022/02/01 12:51:47;;;;;;;;;;;7.40;1.00;;;;;;5084866;28;19912;-83
2022/02/01 12:54:22;;;;;;;;;;;7.50;1.00;;;;;;5088939;28;19908;-83
2022/02/01 12:56:49;;;;;;;;;;;7.50;1.00;;;;;;5106227;28;19923;-83
2022/02/01 12:59:14;;;;;;;;;;;7.50;1.00;;;;;;5090552;28;19909;-84
2022/02/01 13:01:40;;;;;;;;;;;7.50;1.00;;;;;;5088842;28;19972;-83
2022/02/01 13:04:18;;;;;;;;;;;7.60;1.00;;;;;;5090037;28;19908;-83
2022/02/01 13:06:49;;;;;;;;;;;7.60;1.00;;;;;;5078530;28;19996;-83
2022/02/01 13:14:42;;;;;;;;;;;7.60;1.00;;;;;;5090202;28;19984;-83
2022/02/01 13:17:20;;;;;;;;;;;7.60;1.00;;;;;;5088710;28;19913;-84
2022/02/01 13:22:30;;;;;;;;;;;7.60;1.00;;;;;;5086531;28;19923;-82
2022/02/01 13:24:59;;;;;;;;;;;7.60;1.00;;;;;;5081334;28;19908;-82
2022/02/01 13:27:25;;;;;;;;;;;7.60;1.00;;;;;;5091254;28;19909;-83
2022/02/01 13:30:00;;;;;;;;;;;7.50;1.00;;;;;;5089965;28;19915;-83
2022/02/01 13:32:30;;;;;;;;;;;7.50;1.00;;;;;;5090873;28;19930;-82
2022/02/01 13:35:11;;;;;;;;;;;7.40;1.00;;;;;;5092216;28;19918;-83
2022/02/01 13:37:47;;;;;;;;;;;7.40;1.00;;;;;;5093651;28;19919;-83
2022/02/01 13:40:26;;;;;;;;;;;7.40;1.00;;;;;;5080695;28;19920;-83
2022/02/01 13:42:52;;;;;;;;;;;7.40;1.00;;;;;;5090770;28;20323;-83
2022/02/01 13:45:18;;;;;;;;;;;7.40;1.00;;;;;;5090712;28;19916;-84
2022/02/01 13:47:45;;;;;;;;;;;7.50;1.00;;;;;;5092204;28;19980;-84
2022/02/01 13:50:19;;;;;;;;;;;7.50;1.00;;;;;;5090737;28;20406;-83
2022/02/01 13:52:54;;;;;;;;;;;7.50;1.00;;;;;;5091625;28;19909;-83
2022/02/01 13:55:21;;;;;;;;;;;7.50;1.00;;;;;;5083831;28;19920;-83
2022/02/01 13:57:47;;;;;;;;;;;7.50;1.00;;;;;;5079009;28;19968;-83
2022/02/01 14:00:13;;;;;;;;;;;7.40;1.00;;;;;;5087808;28;19916;-83
2022/02/01 14:02:49;;;;;;;;;;;7.50;1.00;;;;;;5090244;28;20296;-83
2022/02/01 14:05:27;;;;;;;;;;;7.50;1.00;;;;;;5090484;28;19916;-83
2022/02/01 14:08:04;;;;;;;;;;;7.40;1.00;;;;;;5095072;28;19916;-83
2022/02/01 14:13:53;;;;;;;;;;;7.50;1.00;;;;;;5090118;28;19905;-83
2022/02/01 14:34:41;;;;;;;;;;;7.70;1.00;;;;;;5086914;28;19959;-80
2022/02/01 14:38:02;;;;;;;;;;;7.80;1.00;;;;;;5086142;28;19935;-80
2022/02/01 14:45:08;;;;;;;;;;;7.90;1.00;;;;;;5083722;28;20383;-80
2022/02/01 14:47:34;;;;;;;;;;;7.90;1.00;;;;;;5085136;28;19972;-81
2022/02/01 14:49:59;;;;;;;;;;;8.00;1.00;;;;;;5074588;28;19935;-80
2022/02/01 14:52:26;;;;;;;;;;;8.00;1.00;;;;;;5079305;28;19909;-80
2022/02/01 14:54:55;;;;;;;;;;;8.00;1.00;;;;;;5070250;28;20288;-80
2022/02/01 15:13:20;;;;;;;;;;;8.30;1.00;;;;;;5083344;28;19983;-80
2022/02/01 15:15:46;;;;;;;;;;;8.30;1.00;;;;;;5082937;28;19968;-80
2022/02/01 15:18:11;;;;;;;;;;;8.30;1.00;;;;;;5084789;28;19925;-80
2022/02/01 15:20:37;;;;;;;;;;;8.40;1.00;;;;;;5081576;28;19913;-80
2022/02/01 15:23:02;;;;;;;;;;;8.40;1.00;;;;;;5100342;28;19935;-80
2022/02/01 15:25:28;;;;;;;;;;;8.40;1.00;;;;;;5087515;28;19947;-82
2022/02/01 15:27:54;;;;;;;;;;;8.50;1.00;;;;;;5076999;28;19917;-81
2022/02/01 15:30:19;;;;;;;;;;;8.50;1.00;;;;;;5074985;28;20312;-80
2022/02/01 15:32:44;;;;;;;;;;;8.50;1.00;;;;;;5081599;28;19917;-80
2022/02/01 15:35:14;;;;;;;;;;;8.50;1.00;;;;;;5080263;28;20202;-79
2022/02/01 15:37:42;;;;;;;;;;;8.50;1.00;;;;;;5080084;28;20250;-80
2022/02/01 15:59:07;;;;;;;;;;;8.60;1.00;;;;;;5082441;28;19912;-80
2022/02/01 16:04:05;;;;;;;;;;;8.60;1.00;;;;;;5082310;28;19913;-80
2022/02/01 16:06:33;;;;;;;;;;;8.60;1.00;;;;;;5079243;28;19919;-80
2022/02/01 16:09:09;;;;;;;;;;;8.60;1.00;;;;;;5102421;28;19908;-80
2022/02/01 16:11:34;;;;;;;;;;;8.60;1.00;;;;;;5085069;28;19912;-80
2022/02/01 16:14:03;;;;;;;;;;;8.60;1.00;;;;;;5082063;28;19912;-80
2022/02/01 16:16:28;;;;;;;;;;;8.60;1.00;;;;;;5087636;28;20288;-79
2022/02/01 16:18:54;;;;;;;;;;;8.70;1.00;;;;;;5081952;28;19935;-80
2022/02/01 16:21:20;;;;;;;;;;;8.70;1.00;;;;;;5086637;28;19976;-80
2022/02/01 16:23:46;;;;;;;;;;;8.60;1.00;;;;;;5086007;28;20445;-80
2022/02/01 16:26:11;;;;;;;;;;;8.70;1.00;;;;;;5083656;28;19955;-80
2022/02/01 16:28:37;;;;;;;;;;;8.70;1.00;;;;;;5086143;28;19913;-80
2022/02/01 16:31:02;;;;;;;;;;;8.70;1.00;;;;;;5085699;28;19916;-80
2022/02/01 16:33:28;;;;;;;;;;;8.70;1.00;;;;;;5084035;28;19913;-79
2022/02/01 16:35:54;;;;;;;;;;;8.70;1.00;;;;;;5082473;28;19916;-80
2022/02/01 16:38:20;;;;;;;;;;;8.70;1.00;;;;;;5085573;28;20035;-80
2022/02/01 16:40:45;;;;;;;;;;;8.70;1.00;;;;;;5085442;28;19919;-80
2022/02/01 16:43:15;;;;;;;;;;;8.70;1.00;;;;;;5083193;28;19917;-80
2022/02/01 16:45:41;;;;;;;;;;;8.80;1.00;;;;;;5085155;28;20027;-80
2022/02/01 16:48:08;;;;;;;;;;;8.80;1.00;;;;;;5083876;28;19919;-80
2022/02/01 16:50:34;;;;;;;;;;;8.80;1.00;;;;;;5100255;28;20019;-81
2022/02/01 16:53:04;;;;;;;;;;;8.80;1.00;;;;;;5078855;28;19955;-80
2022/02/01 16:55:42;;;;;;;;;;;8.80;1.00;;;;;;5085011;28;19917;-81
2022/02/01 16:58:21;;;;;;;;;;;8.80;1.00;;;;;;5089869;28;19900;-79
2022/02/01 17:00:46;;;;;;;;;;;8.80;1.00;;;;;;5090786;28;19917;-81
2022/02/01 17:03:12;;;;;;;;;;;8.80;1.00;;;;;;5088517;28;20012;-80
2022/02/01 17:05:39;;;;;;;;;;;8.80;1.00;;;;;;5100386;28;19923;-81
2022/02/01 17:08:04;;;;;;;;;;;8.80;1.00;;;;;;5082099;28;19912;-81
2022/02/01 17:10:30;;;;;;;;;;;8.90;1.00;;;;;;5099931;28;20281;-81
2022/02/01 17:13:08;;;;;;;;;;;8.90;1.00;;;;;;5079522;28;19920;-80
2022/02/01 17:15:52;;;;;;;;;;;9.00;1.00;;;;;;5080346;28;19921;-80
2022/02/01 17:23:21;;;;;;;;;;;9.00;1.00;;;;;;5080513;28;19976;-80
2022/02/01 17:25:47;;;;;;;;;;;9.00;1.00;;;;;;5084745;28;19935;-80
2022/02/01 17:28:12;;;;;;;;;;;9.10;1.00;;;;;;5078883;28;19920;-81
2022/02/01 17:30:38;;;;;;;;;;;9.10;1.00;;;;;;5082729;28;19921;-81
2022/02/01 17:33:03;;;;;;;;;;;9.20;1.00;;;;;;5079227;28;20015;-81